Terminal Aerodrome Forecast
Issued by NWS Twin Cities, MN

Home | Current Version | Previous Version | Graphics & Text | Print | Product List | Glossary On
Versions: 1 2 3 4 5 6 7 8 9 10 11 12 13 14 15
000
FTUS43 KMPX 011123
TAFEAU
TAF
KEAU 011123Z 0112/0212 19008KT P6SM BKN013
      TEMPO 0112/0114 6SM -SN
     FM011500 25009KT P6SM SCT100
     FM012100 29009G15KT P6SM SCT050
     FM020400 28008KT P6SM SKC=

USA.gov is the U.S. government's official web portal to all federal, state and local government web resources and services.